createdAt,value
2018-12-07T14:25:03.314Z,3.44
2018-12-07T14:26:03.056Z,3.44
2018-12-07T14:27:03.193Z,3.44
2018-12-07T14:28:04.265Z,3.44
2018-12-07T14:29:02.728Z,3.44
2018-12-07T14:30:12.045Z,3.44
2018-12-07T14:32:41.906Z,3.44
2018-12-07T14:33:39.842Z,3.44
2018-12-07T14:34:38.109Z,3.44
2018-12-07T14:35:38.284Z,3.44
2018-12-07T14:36:45.749Z,3.44
2018-12-07T14:37:45.740Z,3.44
2018-12-07T14:38:45.737Z,3.44
2018-12-07T14:39:45.926Z,3.44
2018-12-07T14:40:45.680Z,3.44
2018-12-07T14:41:45.601Z,3.44
2018-12-07T14:42:45.892Z,3.44
2018-12-07T14:43:45.557Z,3.44
2018-12-07T14:44:45.710Z,3.44
2018-12-07T14:45:45.678Z,3.44
2018-12-07T14:46:45.792Z,3.44
2018-12-07T14:47:45.823Z,3.44
2018-12-07T14:48:45.809Z,3.44
2018-12-07T14:49:45.622Z,3.44
2018-12-07T14:50:45.762Z,3.44
2018-12-07T14:51:45.854Z,3.44
2018-12-07T14:52:45.669Z,3.44
2018-12-07T14:55:14.492Z,3.44
2018-12-07T14:56:14.593Z,3.44
2018-12-07T14:57:14.743Z,3.44
2018-12-07T14:58:14.459Z,3.44
2018-12-07T14:59:14.498Z,3.44
2018-12-07T15:00:14.546Z,3.44
2018-12-07T15:01:14.491Z,3.44
2018-12-07T15:02:05.516Z,3.44
2018-12-07T15:03:05.373Z,3.44
2018-12-07T15:04:08.214Z,3.44
2018-12-07T15:05:05.251Z,46.46
2018-12-07T15:06:08.166Z,41.62
2018-12-07T15:07:36.161Z,40.65
2018-12-07T15:08:36.463Z,41.35
2018-12-07T15:09:36.218Z,41.16
2018-12-07T15:10:36.098Z,41.16
2018-12-07T15:11:36.372Z,41.14
2018-12-07T15:12:36.087Z,41.42
2018-12-07T15:13:36.235Z,41.52
2018-12-07T15:15:57.026Z,41.25
2018-12-07T15:17:10.295Z,41.14
2018-12-07T15:18:07.374Z,41.42
2018-12-07T15:18:58.314Z,41.33
2018-12-07T15:19:58.090Z,41.04
2018-12-07T15:20:56.699Z,41.82
2018-12-07T15:21:56.699Z,41.72
2018-12-07T15:22:56.874Z,41.24
2018-12-07T15:23:57.019Z,41.72
2018-12-07T15:24:56.846Z,41.82
2018-12-07T15:25:56.644Z,41.62
2018-12-07T15:26:56.555Z,41.82
2018-12-07T15:27:56.933Z,41.82
2018-12-07T20:07:11.362Z,3.44
2018-12-07T20:08:11.352Z,3.44
2018-12-07T20:10:38.154Z,3.44
2018-12-07T20:11:30.182Z,3.44
2018-12-07T20:12:30.136Z,3.44
2018-12-07T20:13:30.275Z,3.44
2018-12-07T20:14:30.547Z,3.44
2018-12-07T20:18:11.776Z,50.49
2018-12-07T20:19:11.776Z,50.04
2018-12-07T20:20:11.753Z,49.27
2018-12-07T20:21:11.822Z,49.00
2018-12-07T20:22:11.789Z,48.52
2018-12-07T20:23:41.912Z,48.42
2018-12-07T20:30:51.150Z,55.04
2018-12-07T20:31:51.037Z,56.07
2018-12-07T20:32:51.160Z,56.26
2018-12-07T20:33:51.261Z,56.55
2018-12-07T20:34:51.015Z,56.36
2018-12-07T20:35:51.253Z,56.93
2018-12-07T20:36:51.285Z,57.03
2018-12-07T20:37:51.069Z,57.48
2018-12-07T20:38:51.102Z,57.10
2018-12-07T20:39:50.961Z,57.58
2018-12-07T20:40:50.975Z,57.29
2018-12-07T20:41:51.018Z,57.68
2018-12-07T20:42:52.144Z,57.48
2018-12-07T20:43:51.053Z,57.48
2018-12-07T20:44:51.135Z,57.58
2018-12-07T20:45:50.907Z,57.48
2018-12-07T20:46:51.134Z,57.48
2018-12-07T20:47:50.943Z,57.87
2018-12-07T20:48:50.971Z,57.58
2018-12-07T20:49:50.955Z,57.29
2018-12-07T20:50:51.165Z,57.39
2018-12-07T20:51:51.043Z,57.39
2018-12-07T20:52:50.865Z,57.68
2018-12-07T20:53:51.184Z,57.68
2018-12-07T20:54:50.909Z,57.58
2018-12-07T20:55:51.053Z,57.58
2018-12-07T20:56:50.804Z,57.68
2018-12-07T20:57:50.961Z,57.87
2018-12-07T20:58:50.822Z,58.25
2018-12-07T20:59:50.800Z,58.06
2018-12-07T21:00:59.003Z,57.87
2018-12-07T21:01:51.780Z,57.97
2018-12-07T21:02:50.848Z,58.15
2018-12-07T21:03:50.740Z,58.35
